createdAt,value
2024-04-22T00:00:16.720Z,99861.56
2024-04-22T00:01:20.144Z,99870.28
2024-04-22T00:02:23.272Z,99866.88
2024-04-22T00:03:26.199Z,99869.47
2024-04-22T00:04:29.175Z,99869.47
2024-04-22T00:05:32.398Z,99867.66
2024-04-22T00:06:35.251Z,99866.78
2024-04-22T00:07:38.258Z,99864.19
2024-04-22T00:08:41.532Z,99863.34
2024-04-22T00:09:47.523Z,99858.19
2024-04-22T00:11:03.563Z,99860.78
2024-04-22T00:12:08.308Z,99853.81
2024-04-22T00:13:11.291Z,99853.78
2024-04-22T00:14:14.226Z,99857.19
2024-04-22T00:15:17.145Z,99861.50
2024-04-22T00:16:20.204Z,99855.47
2024-04-22T00:17:23.272Z,99859.00
2024-04-22T00:18:26.252Z,99850.38
2024-04-22T00:19:29.172Z,99855.50
2024-04-22T00:20:32.122Z,99852.91
2024-04-22T00:21:35.256Z,99852.94
2024-04-22T00:22:38.233Z,99857.31
2024-04-22T00:23:41.661Z,99857.38
2024-04-22T00:24:44.722Z,99858.28
2024-04-22T00:25:47.558Z,99858.28
2024-04-22T00:26:50.587Z,99860.06
2024-04-22T00:27:53.487Z,99865.28
2024-04-22T00:28:56.387Z,99857.59
2024-04-22T00:29:59.457Z,99855.84
2024-04-22T00:31:02.354Z,99864.44
2024-04-22T00:32:05.541Z,99859.22
2024-04-22T00:33:10.285Z,99861.84
2024-04-22T00:34:13.343Z,99867.88
2024-04-22T00:35:17.488Z,99868.75
2024-04-22T00:36:21.506Z,99865.25
2024-04-22T00:37:24.510Z,99861.75
2024-04-22T00:38:27.981Z,99869.56
2024-04-22T00:39:30.916Z,99860.88
2024-04-22T00:40:33.899Z,99856.50
2024-04-22T00:41:36.786Z,99860.78
2024-04-22T00:42:44.676Z,99868.59
2024-04-22T00:43:47.626Z,99859.91
2024-04-22T00:44:51.159Z,99859.19
2024-04-22T00:46:27.678Z,99863.47
2024-04-22T00:47:30.891Z,99853.97
2024-04-22T00:48:34.670Z,99864.38
2024-04-22T00:49:38.149Z,99850.50
2024-04-22T00:50:42.102Z,99860.97
2024-04-22T00:51:45.522Z,99864.31
2024-04-22T00:52:48.636Z,99862.56
2024-04-22T00:53:53.400Z,99869.56
2024-04-22T00:54:56.286Z,99859.16
2024-04-22T00:56:00.431Z,99862.56
2024-04-22T00:57:04.596Z,99859.19
2024-04-22T00:58:09.196Z,99868.78
2024-04-22T00:59:14.881Z,99874.03
2024-04-22T01:00:18.168Z,99866.13
2024-04-22T01:01:25.056Z,99866.88
2024-04-22T01:02:28.147Z,99864.28
2024-04-22T01:03:31.361Z,99867.72
2024-04-22T01:04:36.858Z,99863.41
2024-04-22T01:05:39.803Z,99864.31
2024-04-22T01:06:42.741Z,99859.16
2024-04-22T01:07:48.990Z,99855.69
2024-04-22T01:08:51.868Z,99866.88
2024-04-22T01:09:54.842Z,99860.00
2024-04-22T01:10:59.681Z,99859.09
2024-04-22T01:12:02.593Z,99864.41
2024-04-22T01:13:05.651Z,99861.06
2024-04-22T01:14:09.203Z,99861.94
2024-04-22T01:15:12.484Z,99865.34
2024-04-22T01:16:15.365Z,99869.59
2024-04-22T01:17:18.265Z,99872.16
2024-04-22T01:18:21.342Z,99866.00
2024-04-22T01:19:24.541Z,99870.28
2024-04-22T01:20:27.495Z,99866.78
2024-04-22T01:21:30.461Z,99852.91
2024-04-22T01:22:33.423Z,99860.69
2024-04-22T01:23:36.490Z,99855.50
2024-04-22T01:24:39.758Z,99864.28
2024-04-22T01:25:44.330Z,99861.66
2024-04-22T01:26:52.593Z,99853.91
2024-04-22T01:27:55.492Z,99852.19
2024-04-22T01:28:58.380Z,99855.72
2024-04-22T01:30:02.705Z,99864.34
2024-04-22T01:31:05.616Z,99864.38
2024-04-22T01:32:08.554Z,99854.81
2024-04-22T01:33:11.637Z,99854.81
2024-04-22T01:34:14.564Z,99861.66
2024-04-22T01:35:17.542Z,99851.38
2024-04-22T01:36:20.591Z,99859.09
2024-04-22T01:37:23.610Z,99857.41
2024-04-22T01:38:26.493Z,99857.47
2024-04-22T01:39:29.456Z,99853.13
2024-04-22T01:40:32.397Z,99854.00
2024-04-22T01:41:35.271Z,99849.69
2024-04-22T01:42:38.182Z,99856.59
2024-04-22T01:43:41.330Z,99852.22
2024-04-22T01:44:44.416Z,99857.38
2024-04-22T01:45:47.410Z,99856.47
2024-04-22T01:46:50.831Z,99854.69
2024-04-22T01:47:54.006Z,99856.41
2024-04-22T01:48:56.925Z,99850.28
2024-04-22T01:49:59.970Z,99853.81
2024-04-22T01:51:02.869Z,99852.00
2024-04-22T01:52:05.913Z,99847.69
2024-04-22T01:53:08.844Z,99852.88
2024-04-22T01:54:11.902Z,99844.28
2024-04-22T01:55:14.949Z,99849.50
2024-04-22T01:56:17.988Z,99851.28
2024-04-22T01:57:21.077Z,99854.81
2024-04-22T01:58:24.021Z,99841.91
2024-04-22T01:59:27.310Z,99850.59
2024-04-22T02:02:12.073Z,99838.50
2024-04-22T02:03:15.597Z,99854.09
2024-04-22T02:04:18.528Z,99849.78
2024-04-22T02:05:21.424Z,99848.88
2024-04-22T02:06:24.286Z,99846.28
2024-04-22T02:07:28.654Z,99849.75
2024-04-22T02:08:31.865Z,99852.31
2024-04-22T02:09:34.850Z,99854.09
2024-04-22T02:10:37.992Z,99850.69
2024-04-22T02:11:40.992Z,99853.31
2024-04-22T02:12:43.995Z,99850.75
2024-04-22T02:13:46.903Z,99853.34
2024-04-22T02:14:49.959Z,99855.91
2024-04-22T02:15:53.145Z,99860.19
2024-04-22T02:16:56.319Z,99842.06
2024-04-22T02:18:01.526Z,99857.69
2024-04-22T02:19:04.603Z,99842.13
2024-04-22T02:20:07.583Z,99849.13
2024-04-22T02:21:10.651Z,99852.63
2024-04-22T02:22:13.657Z,99856.13
2024-04-22T02:23:17.181Z,99848.38
2024-04-22T02:24:20.165Z,99852.69
2024-04-22T02:25:23.303Z,99861.31
2024-04-22T02:26:26.366Z,99857.88
2024-04-22T02:27:29.297Z,99866.44
2024-04-22T02:28:32.273Z,99855.22
2024-04-22T02:29:35.177Z,99865.53
2024-04-22T02:30:38.271Z,99858.59
2024-04-22T02:31:43.456Z,99854.31
2024-04-22T02:32:46.461Z,99856.91
2024-04-22T02:33:49.912Z,99847.38
2024-04-22T02:34:53.180Z,99837.81
2024-04-22T02:35:59.307Z,99849.06
2024-04-22T02:37:02.169Z,99849.06
2024-04-22T02:38:05.214Z,99856.78
2024-04-22T02:39:08.358Z,99851.56
2024-04-22T02:40:11.589Z,99853.28
2024-04-22T02:41:14.485Z,99852.47
2024-04-22T02:42:17.396Z,99852.47
2024-04-22T02:43:20.375Z,99852.47
2024-04-22T02:44:23.321Z,99851.63
2024-04-22T02:45:27.229Z,99851.66
2024-04-22T02:46:30.346Z,99848.16
2024-04-22T02:47:33.565Z,99850.75
2024-04-22T02:48:36.581Z,99848.22
2024-04-22T02:49:39.779Z,99844.75
2024-04-22T02:50:42.856Z,99852.53
2024-04-22T02:51:45.752Z,99847.38
2024-04-22T02:52:48.765Z,99849.06
2024-04-22T02:53:51.722Z,99853.44
2024-04-22T02:54:54.673Z,99844.84
2024-04-22T02:55:57.602Z,99856.06
2024-04-22T02:57:00.485Z,99853.44
2024-04-22T02:58:03.515Z,99849.13
2024-04-22T02:59:06.668Z,99846.59
2024-04-22T03:00:10.331Z,99856.13
2024-04-22T03:01:13.393Z,99848.34
2024-04-22T03:02:16.645Z,99852.69
2024-04-22T03:03:19.747Z,99854.41
2024-04-22T03:04:24.890Z,99855.25
2024-04-22T03:05:28.075Z,99850.09
2024-04-22T03:06:31.038Z,99848.34
2024-04-22T03:07:33.986Z,99844.84
2024-04-22T03:08:38.818Z,99850.97
2024-04-22T03:09:44.164Z,99850.09
2024-04-22T03:10:47.080Z,99852.75
2024-04-22T03:11:50.037Z,99839.84
2024-04-22T03:12:52.956Z,99845.03
2024-04-22T03:13:55.868Z,99852.88
2024-04-22T03:14:59.460Z,99846.81
2024-04-22T03:16:02.408Z,99851.09
2024-04-22T03:17:06.176Z,99840.72
2024-04-22T03:18:09.300Z,99832.09
2024-04-22T03:19:12.488Z,99839.03
2024-04-22T03:20:15.472Z,99844.25
2024-04-22T03:21:18.411Z,99842.50
2024-04-22T03:22:21.585Z,99831.31
2024-04-22T03:23:24.430Z,99833.03
2024-04-22T03:24:27.291Z,99848.63
2024-04-22T03:25:30.275Z,99844.28
2024-04-22T03:26:33.249Z,99845.16
2024-04-22T03:27:36.131Z,99845.13
2024-04-22T03:28:39.518Z,99835.63
2024-04-22T03:29:42.466Z,99839.94
2024-04-22T03:30:45.436Z,99834.78
2024-04-22T03:31:48.457Z,99846.06
2024-04-22T03:32:51.472Z,99846.09
2024-04-22T03:33:54.416Z,99849.56
2024-04-22T03:34:57.336Z,99845.25
2024-04-22T03:36:04.257Z,99839.19
2024-04-22T03:37:07.242Z,99841.78
2024-04-22T03:38:10.321Z,99846.13
2024-04-22T03:39:13.271Z,99845.25
2024-04-22T03:40:16.294Z,99850.44
2024-04-22T03:41:19.209Z,99842.66
2024-04-22T03:42:22.178Z,99848.72
2024-04-22T03:43:25.128Z,99844.41
2024-04-22T03:44:28.627Z,99847.84
2024-04-22T03:45:31.541Z,99841.81
2024-04-22T03:46:53.381Z,99844.41
2024-04-22T03:48:15.214Z,99850.44
2024-04-22T03:49:37.143Z,99850.41
2024-04-22T03:50:42.217Z,99845.28
2024-04-22T03:51:46.226Z,99841.81
2024-04-22T03:52:49.437Z,99840.94
2024-04-22T03:53:52.389Z,99847.88
2024-04-22T03:54:55.412Z,99842.69
2024-04-22T03:55:58.395Z,99850.44
2024-04-22T03:57:01.327Z,99846.97
2024-04-22T03:58:04.332Z,99840.97
2024-04-22T03:59:07.180Z,99848.72
2024-04-22T04:00:10.518Z,99848.72
2024-04-22T04:01:17.455Z,99840.09
2024-04-22T04:02:20.472Z,99846.13
2024-04-22T04:03:23.375Z,99845.25
2024-04-22T04:04:26.559Z,99844.41
2024-04-22T04:05:29.648Z,99838.34
2024-04-22T04:06:32.692Z,99838.34
2024-04-22T04:07:35.654Z,99846.13
2024-04-22T04:08:38.670Z,99844.41
2024-04-22T04:09:43.613Z,99849.56
2024-04-22T04:10:47.391Z,99853.03
2024-04-22T04:11:52.390Z,99851.31
2024-04-22T04:12:55.330Z,99850.44
2024-04-22T04:13:58.227Z,99858.22
2024-04-22T04:15:01.124Z,99854.75
2024-04-22T04:16:04.270Z,99851.28
2024-04-22T04:17:07.267Z,99859.06
2024-04-22T04:18:10.361Z,99853.91
2024-04-22T04:19:15.511Z,99859.09
2024-04-22T04:20:18.428Z,99859.94
2024-04-22T04:21:22.070Z,99854.75
2024-04-22T04:22:25.112Z,99857.34
2024-04-22T04:23:28.056Z,99856.50
2024-04-22T04:24:31.046Z,99860.81
2024-04-22T04:25:33.919Z,99857.34
2024-04-22T04:26:36.916Z,99859.09
2024-04-22T04:27:39.848Z,99859.06
2024-04-22T04:28:44.228Z,99859.94
2024-04-22T04:29:48.210Z,99853.91
2024-04-22T04:31:00.575Z,99854.78
2024-04-22T04:32:03.684Z,99853.91
2024-04-22T04:33:06.876Z,99854.78
2024-04-22T04:34:09.861Z,99854.75
2024-04-22T04:35:12.790Z,99852.16
2024-04-22T04:36:15.728Z,99858.22
2024-04-22T04:37:19.072Z,99849.59
2024-04-22T04:38:21.998Z,99846.97
2024-04-22T04:39:24.926Z,99856.47
2024-04-22T04:40:27.825Z,99853.03
2024-04-22T04:41:30.857Z,99849.56
2024-04-22T04:42:33.948Z,99864.25
2024-04-22T04:43:36.960Z,99858.19
2024-04-22T04:44:39.946Z,99856.50
2024-04-22T04:45:42.854Z,99855.50
2024-04-22T04:46:45.783Z,99838.97
2024-04-22T04:47:50.710Z,99834.06
2024-04-22T04:48:54.102Z,99824.13
2024-04-22T04:49:57.118Z,99815.44
2024-04-22T04:50:59.987Z,99823.88
2024-04-22T04:52:03.074Z,99830.16
2024-04-22T04:53:06.625Z,99842.31
2024-04-22T04:54:09.554Z,99838.47
2024-04-22T04:55:12.550Z,99829.50
2024-04-22T04:56:15.515Z,99832.25
2024-04-22T04:57:18.513Z,99827.16
2024-04-22T04:58:24.938Z,99824.91
2024-04-22T04:59:28.738Z,99825.97
2024-04-22T05:00:31.756Z,99825.63
2024-04-22T05:01:34.839Z,99825.00
2024-04-22T05:02:38.043Z,99831.06
2024-04-22T05:03:41.197Z,99837.66
2024-04-22T05:04:44.156Z,99839.47
2024-04-22T05:05:47.116Z,99837.44
2024-04-22T05:06:50.171Z,99826.75
2024-04-22T05:07:54.034Z,99834.56
2024-04-22T05:08:57.071Z,99829.38
2024-04-22T05:10:00.053Z,99833.28
2024-04-22T05:11:05.971Z,99828.22
2024-04-22T05:12:08.916Z,99826.81
2024-04-22T05:13:11.867Z,99823.75
2024-04-22T05:14:14.725Z,99833.13
2024-04-22T05:15:18.939Z,99820.44
2024-04-22T05:16:21.874Z,99825.97
2024-04-22T05:17:24.895Z,99835.38
2024-04-22T05:18:33.891Z,99837.44
2024-04-22T05:19:37.137Z,99834.00
2024-04-22T05:20:42.623Z,99832.00
2024-04-22T05:21:46.849Z,99834.97
2024-04-22T05:22:49.794Z,99837.41
2024-04-22T05:23:52.726Z,99829.66
2024-04-22T05:24:55.635Z,99828.50
2024-04-22T05:25:58.595Z,99832.63
2024-04-22T05:27:01.483Z,99839.44
2024-04-22T05:28:04.435Z,99825.81
2024-04-22T05:29:07.372Z,99837.38
2024-04-22T05:30:11.089Z,99837.97
2024-04-22T05:31:14.950Z,99842.22
2024-04-22T05:32:19.001Z,99834.75
2024-04-22T05:33:40.521Z,99842.16
2024-04-22T05:35:02.119Z,99842.81
2024-04-22T05:36:13.316Z,99847.72
2024-04-22T05:37:16.556Z,99847.56
2024-04-22T05:38:19.491Z,99846.34
2024-04-22T05:39:22.444Z,99841.03
2024-04-22T05:40:25.461Z,99847.44
2024-04-22T05:41:28.484Z,99845.47
2024-04-22T05:42:31.404Z,99839.69
2024-04-22T05:43:34.321Z,99848.03
2024-04-22T05:44:37.235Z,99838.59
2024-04-22T05:45:40.116Z,99842.59
2024-04-22T05:46:43.915Z,99853.88
2024-04-22T05:47:47.010Z,99849.13
2024-04-22T05:48:50.043Z,99852.91
2024-04-22T05:49:52.924Z,99853.09
2024-04-22T05:50:55.804Z,99847.94
2024-04-22T05:52:00.746Z,99851.81
2024-04-22T05:53:04.438Z,99839.09
2024-04-22T05:54:10.828Z,99849.13
2024-04-22T05:55:13.808Z,99852.84
2024-04-22T05:56:16.829Z,99842.84
2024-04-22T05:57:20.342Z,99846.72
2024-04-22T05:58:23.297Z,99850.63
2024-04-22T05:59:26.258Z,99849.88
2024-04-22T06:00:29.123Z,99852.53
2024-04-22T06:01:32.050Z,99842.13
2024-04-22T06:02:34.898Z,99849.03
2024-04-22T06:03:37.783Z,99841.88
2024-04-22T06:04:40.918Z,99861.81
2024-04-22T06:05:43.875Z,99869.47
2024-04-22T06:06:46.784Z,99854.97
2024-04-22T06:07:49.852Z,99862.78
2024-04-22T06:08:52.869Z,99866.13
2024-04-22T06:09:58.738Z,99868.84
2024-04-22T06:11:01.768Z,99865.81
2024-04-22T06:12:15.178Z,99870.00
2024-04-22T06:13:22.695Z,99876.03
2024-04-22T06:14:25.716Z,99875.91
2024-04-22T06:15:28.656Z,99867.91
2024-04-22T06:16:33.057Z,99868.16
2024-04-22T06:17:37.331Z,99874.13
2024-04-22T06:18:40.662Z,99869.59
2024-04-22T06:19:43.759Z,99877.97
2024-04-22T06:20:47.085Z,99868.75
2024-04-22T06:21:50.080Z,99877.97
2024-04-22T06:22:53.272Z,99866.66
2024-04-22T06:23:56.272Z,99865.69
2024-04-22T06:24:59.297Z,99865.91
2024-04-22T06:26:12.009Z,99874.53
2024-04-22T06:27:15.223Z,99875.28
2024-04-22T06:28:18.902Z,99872.34
2024-04-22T06:29:22.425Z,99866.31
2024-04-22T06:30:25.728Z,99866.50
2024-04-22T06:31:28.895Z,99873.78
2024-04-22T06:32:36.572Z,99873.03
2024-04-22T06:33:43.891Z,99867.03
2024-04-22T06:34:46.955Z,99865.84
2024-04-22T06:35:50.397Z,99871.25
2024-04-22T06:36:53.465Z,99868.72
2024-04-22T06:37:56.636Z,99866.41
2024-04-22T06:38:59.852Z,99853.75
2024-04-22T06:40:02.818Z,99855.34
2024-04-22T06:41:06.160Z,99873.16
2024-04-22T06:42:09.168Z,99867.78
2024-04-22T06:43:12.659Z,99864.25
2024-04-22T06:44:15.598Z,99868.53
2024-04-22T06:45:18.927Z,99864.22
2024-04-22T06:46:22.361Z,99872.66
2024-04-22T06:47:25.325Z,99884.00
2024-04-22T06:48:28.252Z,99907.78
2024-04-22T06:49:31.165Z,99902.66
2024-04-22T06:50:34.090Z,99906.50
2024-04-22T06:51:37.033Z,99909.25
2024-04-22T06:52:39.990Z,99904.69
2024-04-22T06:53:42.990Z,99910.94
2024-04-22T06:54:45.840Z,99911.28
2024-04-22T06:55:48.822Z,99919.97
2024-04-22T06:56:51.749Z,99922.78
2024-04-22T06:57:54.703Z,99905.44
2024-04-22T06:58:57.576Z,99915.06
2024-04-22T07:00:00.622Z,99904.56
2024-04-22T07:01:03.688Z,99919.19
2024-04-22T07:02:10.449Z,99900.41
2024-04-22T07:03:15.804Z,99903.41
2024-04-22T07:04:18.999Z,99919.03
2024-04-22T07:05:21.952Z,99908.78
2024-04-22T07:06:27.809Z,99907.97
2024-04-22T07:07:32.930Z,99905.56
2024-04-22T07:08:35.973Z,99908.31
2024-04-22T07:09:38.871Z,99909.22
2024-04-22T07:10:41.876Z,99914.44
2024-04-22T07:11:45.150Z,99910.25
2024-04-22T07:12:48.013Z,99904.03
2024-04-22T07:13:51.866Z,99904.81
2024-04-22T07:14:54.801Z,99911.78
2024-04-22T07:15:57.707Z,99915.47
2024-04-22T07:17:00.710Z,99910.50
2024-04-22T07:18:03.899Z,99910.75
2024-04-22T07:19:07.089Z,99905.53
2024-04-22T07:20:10.390Z,99908.25
2024-04-22T07:21:15.686Z,99908.78
2024-04-22T07:22:18.782Z,99895.47
2024-04-22T07:23:21.856Z,99908.06
2024-04-22T07:24:26.633Z,99897.84
2024-04-22T07:25:31.676Z,99899.34
2024-04-22T07:26:34.691Z,99907.84
2024-04-22T07:27:37.782Z,99905.34
2024-04-22T07:28:40.830Z,99907.16
2024-04-22T07:29:43.901Z,99902.63
2024-04-22T07:30:47.051Z,99902.34
2024-04-22T07:31:50.252Z,99905.13
2024-04-22T07:32:53.456Z,99904.19
2024-04-22T07:33:57.649Z,99909.66
2024-04-22T07:35:00.962Z,99897.25
2024-04-22T07:36:11.990Z,99906.16
2024-04-22T07:37:20.837Z,99911.31
2024-04-22T07:38:32.687Z,99900.09
2024-04-22T07:39:36.873Z,99903.31
2024-04-22T07:40:40.445Z,99895.63
2024-04-22T07:41:43.336Z,99891.25
2024-04-22T07:42:47.873Z,99895.53
2024-04-22T07:43:51.111Z,99890.81
2024-04-22T07:44:54.304Z,99895.16
2024-04-22T07:45:57.236Z,99894.28
2024-04-22T07:47:00.293Z,99901.06
2024-04-22T07:48:03.456Z,99895.84
2024-04-22T07:49:06.640Z,99890.72
2024-04-22T07:50:10.140Z,99901.31
2024-04-22T07:51:13.167Z,99887.59
2024-04-22T07:52:16.411Z,99896.34
2024-04-22T07:53:19.710Z,99891.53
2024-04-22T07:54:25.411Z,99894.25
2024-04-22T07:55:29.138Z,99896.91
2024-04-22T07:56:32.480Z,99884.59
2024-04-22T07:57:40.783Z,99901.53
2024-04-22T07:58:47.531Z,99898.25
2024-04-22T07:59:50.786Z,99894.66
2024-04-22T08:00:54.496Z,99892.41
2024-04-22T08:01:57.712Z,99891.91
2024-04-22T08:03:01.027Z,99893.34
2024-04-22T08:04:04.344Z,99898.94
2024-04-22T08:05:08.279Z,99904.31
2024-04-22T08:06:15.448Z,99898.28
2024-04-22T08:07:20.542Z,99899.59
2024-04-22T08:08:25.882Z,99885.31
2024-04-22T08:09:29.155Z,99894.53
2024-04-22T08:10:32.217Z,99889.28
2024-04-22T08:11:35.832Z,99887.50
2024-04-22T08:12:38.780Z,99891.25
2024-04-22T08:13:41.803Z,99888.25
2024-04-22T08:14:45.261Z,99879.84
2024-04-22T08:15:48.922Z,99882.50
2024-04-22T08:16:52.054Z,99880.72
2024-04-22T08:17:55.179Z,99884.56
2024-04-22T08:18:58.324Z,99881.16
2024-04-22T08:20:01.245Z,99899.81
2024-04-22T08:21:06.622Z,99886.91
2024-04-22T08:22:09.593Z,99879.88
2024-04-22T08:23:12.497Z,99883.97
2024-04-22T08:24:15.423Z,99883.69
2024-04-22T08:25:18.599Z,99889.94
2024-04-22T08:26:21.777Z,99887.06
2024-04-22T08:27:24.975Z,99884.06
2024-04-22T08:28:28.234Z,99893.06
2024-04-22T08:29:31.137Z,99885.41
2024-04-22T08:30:34.412Z,99893.06
2024-04-22T08:31:37.339Z,99895.28
2024-04-22T08:32:40.483Z,99897.84
2024-04-22T08:33:43.664Z,99895.22
2024-04-22T08:34:47.622Z,99886.19
2024-04-22T08:35:50.767Z,99888.38
2024-04-22T08:36:55.372Z,99887.72
2024-04-22T08:37:58.307Z,99889.09
2024-04-22T08:39:01.194Z,99882.50
2024-04-22T08:40:04.149Z,99873.50
2024-04-22T08:41:13.478Z,99883.78
2024-04-22T08:42:16.709Z,99877.16
2024-04-22T08:43:19.917Z,99882.09
2024-04-22T08:44:23.180Z,99882.47
2024-04-22T08:45:26.551Z,99879.66
2024-04-22T08:46:29.585Z,99886.34
2024-04-22T08:47:33.004Z,99889.34
2024-04-22T08:48:36.538Z,99870.63
2024-04-22T08:49:39.502Z,99873.59
2024-04-22T08:50:43.141Z,99878.41
2024-04-22T08:51:48.091Z,99873.69
2024-04-22T08:52:56.228Z,99883.75
2024-04-22T08:54:00.307Z,99880.97
2024-04-22T08:55:04.175Z,99882.88
2024-04-22T08:56:09.594Z,99879.66
2024-04-22T08:57:12.477Z,99878.97
2024-04-22T08:58:15.749Z,99880.69
2024-04-22T08:59:29.586Z,99878.66
2024-04-22T09:00:37.889Z,99878.66
2024-04-22T09:01:41.063Z,99873.16
2024-04-22T09:02:44.134Z,99866.97
2024-04-22T09:03:47.261Z,99866.19
2024-04-22T09:04:50.529Z,99872.19
2024-04-22T09:05:53.562Z,99857.13
2024-04-22T09:06:57.123Z,99865.31
2024-04-22T09:08:02.576Z,99860.19
2024-04-22T09:09:11.228Z,99858.50
2024-04-22T09:10:49.020Z,99864.88
2024-04-22T09:11:59.032Z,99854.50
2024-04-22T09:13:03.102Z,99853.19
2024-04-22T09:14:06.835Z,99858.41
2024-04-22T09:15:09.959Z,99860.94
2024-04-22T09:16:17.574Z,99869.91
2024-04-22T09:17:21.148Z,99871.59
2024-04-22T09:18:29.359Z,99864.31
2024-04-22T09:19:33.601Z,99850.00
2024-04-22T09:20:37.550Z,99861.69
2024-04-22T09:21:40.550Z,99851.50
2024-04-22T09:22:43.679Z,99852.31
2024-04-22T09:23:46.778Z,99856.50
2024-04-22T09:24:49.776Z,99856.75
2024-04-22T09:25:53.002Z,99858.41
2024-04-22T09:26:58.400Z,99861.78
2024-04-22T09:28:02.137Z,99856.13
2024-04-22T09:29:09.293Z,99854.66
2024-04-22T09:30:14.494Z,99859.25
2024-04-22T09:31:21.596Z,99862.03
2024-04-22T09:32:27.650Z,99852.38
2024-04-22T09:33:39.996Z,99860.19
2024-04-22T09:34:44.945Z,99867.38
2024-04-22T09:35:48.480Z,99866.47
2024-04-22T09:36:51.984Z,99859.28
2024-04-22T09:37:55.999Z,99870.38
2024-04-22T09:38:59.455Z,99868.84
2024-04-22T09:40:05.942Z,99864.94
2024-04-22T09:41:10.210Z,99870.03
2024-04-22T09:42:14.517Z,99857.69
2024-04-22T09:43:18.738Z,99863.00
2024-04-22T09:44:23.540Z,99861.44
2024-04-22T09:45:26.746Z,99860.47
2024-04-22T09:46:32.576Z,99877.44
2024-04-22T09:47:38.899Z,99863.19
2024-04-22T09:48:45.911Z,99862.13
2024-04-22T09:49:50.408Z,99860.50
2024-04-22T09:50:55.488Z,99858.16
2024-04-22T09:52:01.041Z,99858.63
2024-04-22T09:53:06.440Z,99865.28
2024-04-22T09:54:09.636Z,99862.38
2024-04-22T09:55:12.817Z,99854.44
2024-04-22T09:56:30.713Z,99853.06
2024-04-22T09:57:37.599Z,99843.81
2024-04-22T09:58:42.136Z,99849.06
2024-04-22T09:59:46.177Z,99851.59
2024-04-22T10:00:51.756Z,99846.88
2024-04-22T10:01:55.203Z,99857.28
2024-04-22T10:02:58.578Z,99857.34
2024-04-22T10:04:02.203Z,99856.09
2024-04-22T10:05:13.337Z,99859.25
2024-04-22T10:06:18.983Z,99855.59
2024-04-22T10:07:22.128Z,99850.91
2024-04-22T10:08:25.227Z,99854.16
2024-04-22T10:09:28.668Z,99850.03
2024-04-22T10:10:32.303Z,99862.28
2024-04-22T10:11:35.637Z,99858.63
2024-04-22T10:12:38.892Z,99847.50
2024-04-22T10:13:42.076Z,99847.81
2024-04-22T10:14:45.008Z,99845.00
2024-04-22T10:15:48.619Z,99839.00
2024-04-22T10:16:58.855Z,99840.56
2024-04-22T10:18:19.647Z,99835.91
2024-04-22T10:19:22.940Z,99839.16
2024-04-22T10:20:34.795Z,99841.53
2024-04-22T10:21:43.922Z,99827.28
2024-04-22T10:22:46.923Z,99833.19
2024-04-22T10:23:49.894Z,99837.44
2024-04-22T10:24:54.775Z,99824.13
2024-04-22T10:25:57.914Z,99816.28
2024-04-22T10:27:09.860Z,99819.00
2024-04-22T10:28:15.187Z,99815.47
2024-04-22T10:29:18.896Z,99809.91
2024-04-22T10:30:21.793Z,99813.69
2024-04-22T10:31:26.152Z,99819.50
2024-04-22T10:32:29.192Z,99814.91
2024-04-22T10:33:32.205Z,99816.16
2024-04-22T10:34:39.753Z,99801.78
2024-04-22T10:35:42.670Z,99812.38
2024-04-22T10:36:47.349Z,99804.88
2024-04-22T10:37:51.745Z,99798.34
2024-04-22T10:38:54.767Z,99795.28
2024-04-22T10:39:57.714Z,99796.22
2024-04-22T10:41:00.580Z,99793.34
2024-04-22T10:42:04.032Z,99797.97
2024-04-22T10:43:07.279Z,99787.31
2024-04-22T10:44:10.305Z,99796.22
2024-04-22T10:45:14.600Z,99784.00
2024-04-22T10:46:17.848Z,99780.28
2024-04-22T10:47:21.669Z,99788.44
2024-04-22T10:48:26.042Z,99789.00
2024-04-22T10:49:32.544Z,99782.88
2024-04-22T10:50:40.730Z,99790.75
2024-04-22T10:51:43.691Z,99785.06
2024-04-22T10:52:46.791Z,99790.38
2024-04-22T10:53:51.148Z,99794.28
2024-04-22T10:54:54.112Z,99803.59
2024-04-22T10:55:57.047Z,99788.06
2024-04-22T10:57:01.222Z,99795.72
2024-04-22T10:58:04.131Z,99792.28
2024-04-22T10:59:07.491Z,99801.16
2024-04-22T11:00:11.994Z,99786.56
2024-04-22T11:01:15.105Z,99786.44
2024-04-22T11:02:18.311Z,99788.88
2024-04-22T11:03:21.512Z,99782.34
2024-04-22T11:04:24.547Z,99789.56
2024-04-22T11:05:29.843Z,99795.69
2024-04-22T11:06:33.827Z,99783.91
2024-04-22T11:07:36.769Z,99795.84
2024-04-22T11:08:43.462Z,99800.00
2024-04-22T11:09:47.202Z,99796.38
2024-04-22T11:10:50.367Z,99791.81
2024-04-22T11:11:53.770Z,99794.72
2024-04-22T11:12:57.305Z,99793.59
2024-04-22T11:14:00.331Z,99791.53
2024-04-22T11:15:03.687Z,99793.00
2024-04-22T11:16:10.533Z,99793.06
2024-04-22T11:17:21.658Z,99783.31
2024-04-22T11:18:24.749Z,99787.13
2024-04-22T11:19:29.091Z,99791.91
2024-04-22T11:20:32.718Z,99779.19
2024-04-22T11:21:36.031Z,99781.38
2024-04-22T11:22:39.351Z,99769.63
2024-04-22T11:23:42.411Z,99771.25
2024-04-22T11:24:45.381Z,99769.22
2024-04-22T11:25:48.757Z,99782.84
2024-04-22T11:26:52.025Z,99777.59
2024-04-22T11:27:55.098Z,99776.75
2024-04-22T11:29:00.250Z,99790.00
2024-04-22T11:30:03.400Z,99794.09
2024-04-22T11:31:08.590Z,99803.13
2024-04-22T11:32:11.978Z,99799.81
2024-04-22T11:33:15.304Z,99800.72
2024-04-22T11:34:20.583Z,99800.00
2024-04-22T11:35:24.207Z,99794.66
2024-04-22T11:36:31.779Z,99791.28
2024-04-22T11:37:36.842Z,99796.34
2024-04-22T11:38:39.773Z,99795.22
2024-04-22T11:39:42.829Z,99794.63
2024-04-22T11:40:47.708Z,99781.00
2024-04-22T11:41:50.705Z,99777.84
2024-04-22T11:42:53.599Z,99784.31
2024-04-22T11:43:56.632Z,99765.34
2024-04-22T11:45:01.464Z,99777.09
2024-04-22T11:46:06.015Z,99763.63
2024-04-22T11:47:09.080Z,99763.50
2024-04-22T11:48:12.225Z,99775.31
2024-04-22T11:49:15.395Z,99772.78
2024-04-22T11:50:18.403Z,99766.81
2024-04-22T11:51:21.351Z,99759.31
2024-04-22T11:52:24.368Z,99754.53
2024-04-22T11:53:27.520Z,99759.75
2024-04-22T11:54:30.686Z,99766.53
2024-04-22T11:55:33.634Z,99767.50
2024-04-22T11:56:37.327Z,99768.66
2024-04-22T11:57:42.459Z,99760.25
2024-04-22T11:58:46.491Z,99770.72
2024-04-22T11:59:49.759Z,99774.28
2024-04-22T12:00:52.822Z,99763.94
2024-04-22T12:01:55.811Z,99770.69
2024-04-22T12:02:58.871Z,99765.97
2024-04-22T12:04:02.350Z,99759.41
2024-04-22T12:05:15.531Z,99771.56
2024-04-22T12:06:18.680Z,99770.09
2024-04-22T12:07:21.755Z,99772.13
2024-04-22T12:08:24.747Z,99775.16
2024-04-22T12:09:27.820Z,99769.53
2024-04-22T12:10:30.810Z,99773.31
2024-04-22T12:11:33.744Z,99766.72
2024-04-22T12:12:36.751Z,99768.41
2024-04-22T12:13:39.739Z,99770.47
2024-04-22T12:14:42.662Z,99762.25
2024-04-22T12:15:45.588Z,99758.53
2024-04-22T12:16:50.193Z,99760.97
2024-04-22T12:17:53.389Z,99764.97
2024-04-22T12:18:56.286Z,99761.47
2024-04-22T12:19:59.275Z,99751.06
2024-04-22T12:21:05.021Z,99750.91
2024-04-22T12:22:08.994Z,99751.94
2024-04-22T12:23:11.964Z,99761.63
2024-04-22T12:24:14.924Z,99759.28
2024-04-22T12:25:18.212Z,99755.75
2024-04-22T12:26:21.147Z,99754.22
2024-04-22T12:27:24.526Z,99750.69
2024-04-22T12:28:27.463Z,99758.22
2024-04-22T12:29:30.433Z,99755.34
2024-04-22T12:30:33.317Z,99752.88
2024-04-22T12:31:36.685Z,99763.44
2024-04-22T12:32:39.870Z,99752.00
2024-04-22T12:33:51.345Z,99745.97